EPS weather

Samana El Portillo Airport
Samana, SamanĂ¡ Province, Dominican Republic

Public forecast

Using degrees Celsius for public forecast. Weather courtesy of forecast.io.

METAR (pilot weather report)

Report is more than 2 hours old.

Closest report is Arroyo Barril Airport, 8.3 nm (15.3 km) SSE. Retrieved 2019/07/23 22:00 UTC (2 hours ago):

MDAB 232200Z 00000KT 9999 FEW015CB BKN018 29/24 Q1015 CB/S/W

TAF (pilot weather forecast)

Forecast is more than 12 hours old.

Closest forecast is Arroyo Barril Airport, 8.3 nm (15.3 km) SSE. Retrieved 2015/05/17 00:35 UTC (4 years ago):

TAF MDAB 172200Z 1800/1900 00000KT 9999 ?TS FEW018CB SCT020 BKN300 BECMG 1909/1912 00000KT